sensor_id;sensor_type;location;lat;lon;timestamp;P1;durP1;ratioP1;P2;durP2;ratioP2
52031;SDS011;38044;45.148;39.604;2024-01-11T00:00:42;21.38;;;13.43;;
52031;SDS011;38044;45.148;39.604;2024-01-11T00:03:08;31.92;;;15.95;;
52031;SDS011;38044;45.148;39.604;2024-01-11T00:05:34;33.90;;;16.48;;
52031;SDS011;38044;45.148;39.604;2024-01-11T00:08:00;36.30;;;16.42;;
52031;SDS011;38044;45.148;39.604;2024-01-11T00:10:26;24.48;;;13.45;;
52031;SDS011;38044;45.148;39.604;2024-01-11T00:12:52;25.27;;;13.50;;
52031;SDS011;38044;45.148;39.604;2024-01-11T00:15:18;18.60;;;13.02;;
52031;SDS011;38044;45.148;39.604;2024-01-11T00:17:44;32.22;;;15.77;;
52031;SDS011;38044;45.148;39.604;2024-01-11T00:20:10;20.60;;;13.48;;
52031;SDS011;38044;45.148;39.604;2024-01-11T00:22:36;31.23;;;15.82;;
52031;SDS011;38044;45.148;39.604;2024-01-11T00:25:02;39.08;;;17.45;;
52031;SDS011;38044;45.148;39.604;2024-01-11T00:27:29;23.40;;;14.60;;
52031;SDS011;38044;45.148;39.604;2024-01-11T00:29:55;38.88;;;19.80;;
52031;SDS011;38044;45.148;39.604;2024-01-11T00:32:21;31.13;;;17.48;;
52031;SDS011;38044;45.148;39.604;2024-01-11T00:34:47;26.45;;;15.25;;
52031;SDS011;38044;45.148;39.604;2024-01-11T00:37:13;39.95;;;18.88;;
52031;SDS011;38044;45.148;39.604;2024-01-11T00:39:39;32.97;;;16.92;;
52031;SDS011;38044;45.148;39.604;2024-01-11T00:42:04;29.00;;;14.90;;
52031;SDS011;38044;45.148;39.604;2024-01-11T00:44:30;30.02;;;17.63;;
52031;SDS011;38044;45.148;39.604;2024-01-11T00:46:56;23.52;;;14.55;;
52031;SDS011;38044;45.148;39.604;2024-01-11T00:49:22;22.70;;;14.32;;
52031;SDS011;38044;45.148;39.604;2024-01-11T00:51:48;24.15;;;14.75;;
52031;SDS011;38044;45.148;39.604;2024-01-11T00:54:14;25.38;;;15.18;;
52031;SDS011;38044;45.148;39.604;2024-01-11T00:56:40;21.17;;;13.38;;
52031;SDS011;38044;45.148;39.604;2024-01-11T00:59:06;26.75;;;14.23;;
52031;SDS011;38044;45.148;39.604;2024-01-11T01:01:31;21.00;;;13.15;;
52031;SDS011;38044;45.148;39.604;2024-01-11T01:03:58;17.42;;;11.30;;
52031;SDS011;38044;45.148;39.604;2024-01-11T01:06:24;29.25;;;15.93;;
52031;SDS011;38044;45.148;39.604;2024-01-11T01:08:50;22.10;;;13.55;;
52031;SDS011;38044;45.148;39.604;2024-01-11T01:11:16;16.17;;;11.43;;
52031;SDS011;38044;45.148;39.604;2024-01-11T01:13:41;23.67;;;13.73;;
52031;SDS011;38044;45.148;39.604;2024-01-11T01:16:07;22.60;;;12.95;;
52031;SDS011;38044;45.148;39.604;2024-01-11T01:18:33;16.45;;;11.85;;
52031;SDS011;38044;45.148;39.604;2024-01-11T01:20:59;21.38;;;13.50;;
52031;SDS011;38044;45.148;39.604;2024-01-11T01:23:25;16.55;;;11.63;;
52031;SDS011;38044;45.148;39.604;2024-01-11T01:25:50;16.13;;;10.85;;
52031;SDS011;38044;45.148;39.604;2024-01-11T01:28:16;14.80;;;9.25;;
52031;SDS011;38044;45.148;39.604;2024-01-11T01:30:42;13.68;;;9.80;;
52031;SDS011;38044;45.148;39.604;2024-01-11T01:33:08;17.00;;;11.43;;
52031;SDS011;38044;45.148;39.604;2024-01-11T01:35:34;18.15;;;12.27;;
52031;SDS011;38044;45.148;39.604;2024-01-11T01:38:00;17.17;;;10.25;;
52031;SDS011;38044;45.148;39.604;2024-01-11T01:40:26;14.73;;;10.25;;
52031;SDS011;38044;45.148;39.604;2024-01-11T01:42:54;13.60;;;8.95;;
52031;SDS011;38044;45.148;39.604;2024-01-11T01:45:25;16.15;;;9.60;;
52031;SDS011;38044;45.148;39.604;2024-01-11T01:47:50;13.40;;;9.52;;
52031;SDS011;38044;45.148;39.604;2024-01-11T01:50:16;14.73;;;9.35;;
52031;SDS011;38044;45.148;39.604;2024-01-11T01:52:43;14.45;;;9.52;;
52031;SDS011;38044;45.148;39.604;2024-01-11T01:55:10;17.30;;;10.85;;
52031;SDS011;38044;45.148;39.604;2024-01-11T01:57:36;17.15;;;10.68;;
52031;SDS011;38044;45.148;39.604;2024-01-11T02:00:05;14.20;;;9.32;;
52031;SDS011;38044;45.148;39.604;2024-01-11T02:02:31;16.95;;;11.13;;
52031;SDS011;38044;45.148;39.604;2024-01-11T02:04:59;19.88;;;11.85;;
52031;SDS011;38044;45.148;39.604;2024-01-11T02:07:26;17.23;;;11.20;;
52031;SDS011;38044;45.148;39.604;2024-01-11T02:09:52;21.45;;;11.90;;
52031;SDS011;38044;45.148;39.604;2024-01-11T02:12:18;16.58;;;9.32;;
52031;SDS011;38044;45.148;39.604;2024-01-11T02:14:46;14.98;;;10.50;;
52031;SDS011;38044;45.148;39.604;2024-01-11T02:17:12;17.65;;;11.02;;
52031;SDS011;38044;45.148;39.604;2024-01-11T02:19:37;20.20;;;10.85;;
52031;SDS011;38044;45.148;39.604;2024-01-11T02:22:15;20.27;;;12.13;;
52031;SDS011;38044;45.148;39.604;2024-01-11T02:24:57;19.55;;;10.27;;
52031;SDS011;38044;45.148;39.604;2024-01-11T02:27:23;18.00;;;11.82;;
52031;SDS011;38044;45.148;39.604;2024-01-11T02:29:49;19.92;;;11.93;;
52031;SDS011;38044;45.148;39.604;2024-01-11T02:32:15;21.85;;;12.05;;
52031;SDS011;38044;45.148;39.604;2024-01-11T02:34:41;17.73;;;10.65;;
52031;SDS011;38044;45.148;39.604;2024-01-11T02:37:08;20.25;;;12.25;;
52031;SDS011;38044;45.148;39.604;2024-01-11T02:39:33;19.83;;;11.80;;
52031;SDS011;38044;45.148;39.604;2024-01-11T02:42:00;24.25;;;11.38;;
52031;SDS011;38044;45.148;39.604;2024-01-11T02:44:26;26.48;;;12.80;;
52031;SDS011;38044;45.148;39.604;2024-01-11T02:46:52;21.83;;;12.27;;
52031;SDS011;38044;45.148;39.604;2024-01-11T02:49:17;24.45;;;13.00;;
52031;SDS011;38044;45.148;39.604;2024-01-11T02:51:43;36.72;;;13.35;;
52031;SDS011;38044;45.148;39.604;2024-01-11T02:54:10;30.20;;;14.52;;
52031;SDS011;38044;45.148;39.604;2024-01-11T02:56:36;25.48;;;14.20;;
52031;SDS011;38044;45.148;39.604;2024-01-11T02:59:02;25.52;;;14.02;;
52031;SDS011;38044;45.148;39.604;2024-01-11T03:01:28;32.20;;;15.88;;
52031;SDS011;38044;45.148;39.604;2024-01-11T03:03:54;31.85;;;14.98;;
52031;SDS011;38044;45.148;39.604;2024-01-11T03:06:21;30.35;;;14.27;;
52031;SDS011;38044;45.148;39.604;2024-01-11T03:08:47;36.13;;;13.05;;
52031;SDS011;38044;45.148;39.604;2024-01-11T03:11:14;31.23;;;14.80;;
52031;SDS011;38044;45.148;39.604;2024-01-11T03:13:43;26.52;;;14.45;;
52031;SDS011;38044;45.148;39.604;2024-01-11T03:16:09;35.35;;;15.63;;
52031;SDS011;38044;45.148;39.604;2024-01-11T03:18:35;31.90;;;14.85;;
52031;SDS011;38044;45.148;39.604;2024-01-11T03:21:01;30.88;;;15.35;;
52031;SDS011;38044;45.148;39.604;2024-01-11T03:23:27;37.03;;;17.23;;
52031;SDS011;38044;45.148;39.604;2024-01-11T03:25:53;34.53;;;15.30;;
52031;SDS011;38044;45.148;39.604;2024-01-11T03:28:19;36.40;;;16.70;;
52031;SDS011;38044;45.148;39.604;2024-01-11T03:30:45;38.72;;;16.67;;
52031;SDS011;38044;45.148;39.604;2024-01-11T03:33:11;34.67;;;16.65;;
52031;SDS011;38044;45.148;39.604;2024-01-11T03:35:37;31.77;;;14.93;;
52031;SDS011;38044;45.148;39.604;2024-01-11T03:38:05;34.92;;;16.10;;
52031;SDS011;38044;45.148;39.604;2024-01-11T03:40:31;39.38;;;18.45;;
52031;SDS011;38044;45.148;39.604;2024-01-11T03:42:57;34.22;;;18.05;;
52031;SDS011;38044;45.148;39.604;2024-01-11T03:45:23;37.25;;;18.40;;
52031;SDS011;38044;45.148;39.604;2024-01-11T03:47:49;37.75;;;18.13;;
52031;SDS011;38044;45.148;39.604;2024-01-11T03:50:15;39.35;;;18.67;;
52031;SDS011;38044;45.148;39.604;2024-01-11T03:52:41;37.63;;;18.73;;
52031;SDS011;38044;45.148;39.604;2024-01-11T03:55:07;44.17;;;20.10;;
52031;SDS011;38044;45.148;39.604;2024-01-11T03:57:33;43.03;;;19.50;;
52031;SDS011;38044;45.148;39.604;2024-01-11T04:00:00;41.30;;;16.95;;
52031;SDS011;38044;45.148;39.604;2024-01-11T04:02:26;46.03;;;22.13;;
52031;SDS011;38044;45.148;39.604;2024-01-11T04:04:51;56.72;;;25.10;;
52031;SDS011;38044;45.148;39.604;2024-01-11T04:07:19;54.38;;;24.58;;
52031;SDS011;38044;45.148;39.604;2024-01-11T04:09:46;56.05;;;24.60;;
52031;SDS011;38044;45.148;39.604;2024-01-11T04:12:14;60.47;;;25.42;;
52031;SDS011;38044;45.148;39.604;2024-01-11T04:14:40;57.35;;;27.02;;
52031;SDS011;38044;45.148;39.604;2024-01-11T04:17:06;54.55;;;24.63;;
52031;SDS011;38044;45.148;39.604;2024-01-11T04:19:32;61.25;;;25.63;;
52031;SDS011;38044;45.148;39.604;2024-01-11T04:21:58;49.22;;;22.92;;
52031;SDS011;38044;45.148;39.604;2024-01-11T04:24:23;53.88;;;22.92;;
52031;SDS011;38044;45.148;39.604;2024-01-11T04:26:50;53.40;;;23.70;;
52031;SDS011;38044;45.148;39.604;2024-01-11T04:29:15;51.45;;;24.42;;
52031;SDS011;38044;45.148;39.604;2024-01-11T04:31:41;53.15;;;24.85;;
52031;SDS011;38044;45.148;39.604;2024-01-11T04:34:07;61.38;;;26.67;;
52031;SDS011;38044;45.148;39.604;2024-01-11T04:36:36;64.82;;;29.67;;
52031;SDS011;38044;45.148;39.604;2024-01-11T04:39:03;53.95;;;25.42;;
52031;SDS011;38044;45.148;39.604;2024-01-11T04:41:29;53.05;;;25.52;;
52031;SDS011;38044;45.148;39.604;2024-01-11T04:43:54;51.05;;;24.77;;
52031;SDS011;38044;45.148;39.604;2024-01-11T04:46:21;43.22;;;23.85;;
52031;SDS011;38044;45.148;39.604;2024-01-11T04:48:48;42.55;;;22.98;;
52031;SDS011;38044;45.148;39.604;2024-01-11T04:51:14;41.65;;;23.58;;
52031;SDS011;38044;45.148;39.604;2024-01-11T04:53:42;45.90;;;24.23;;
52031;SDS011;38044;45.148;39.604;2024-01-11T04:56:09;56.78;;;24.75;;
52031;SDS011;38044;45.148;39.604;2024-01-11T04:58:36;51.60;;;24.38;;
52031;SDS011;38044;45.148;39.604;2024-01-11T05:01:03;54.15;;;27.10;;
52031;SDS011;38044;45.148;39.604;2024-01-11T05:03:30;50.58;;;23.77;;
52031;SDS011;38044;45.148;39.604;2024-01-11T05:05:57;51.08;;;25.90;;
52031;SDS011;38044;45.148;39.604;2024-01-11T05:08:24;47.53;;;23.33;;
52031;SDS011;38044;45.148;39.604;2024-01-11T05:10:51;52.78;;;25.38;;
52031;SDS011;38044;45.148;39.604;2024-01-11T05:13:17;42.05;;;21.52;;
52031;SDS011;38044;45.148;39.604;2024-01-11T05:15:44;42.67;;;21.73;;
52031;SDS011;38044;45.148;39.604;2024-01-11T05:18:10;49.95;;;23.15;;
52031;SDS011;38044;45.148;39.604;2024-01-11T05:20:36;46.55;;;20.30;;
52031;SDS011;38044;45.148;39.604;2024-01-11T05:23:02;42.17;;;21.48;;
52031;SDS011;38044;45.148;39.604;2024-01-11T05:25:29;42.05;;;21.75;;
52031;SDS011;38044;45.148;39.604;2024-01-11T05:27:59;42.35;;;20.73;;
52031;SDS011;38044;45.148;39.604;2024-01-11T05:30:26;44.38;;;21.77;;
52031;SDS011;38044;45.148;39.604;2024-01-11T05:32:53;41.53;;;20.33;;
52031;SDS011;38044;45.148;39.604;2024-01-11T05:35:19;36.08;;;20.02;;
52031;SDS011;38044;45.148;39.604;2024-01-11T05:37:45;34.58;;;18.48;;
52031;SDS011;38044;45.148;39.604;2024-01-11T05:40:11;29.30;;;16.13;;
52031;SDS011;38044;45.148;39.604;2024-01-11T05:42:37;29.50;;;16.20;;
52031;SDS011;38044;45.148;39.604;2024-01-11T05:45:05;28.48;;;16.00;;
52031;SDS011;38044;45.148;39.604;2024-01-11T05:47:32;24.15;;;14.20;;
52031;SDS011;38044;45.148;39.604;2024-01-11T05:49:57;25.73;;;14.25;;
52031;SDS011;38044;45.148;39.604;2024-01-11T05:52:23;24.13;;;14.25;;
52031;SDS011;38044;45.148;39.604;2024-01-11T05:54:49;24.92;;;14.70;;
52031;SDS011;38044;45.148;39.604;2024-01-11T05:57:15;22.90;;;14.32;;
52031;SDS011;38044;45.148;39.604;2024-01-11T05:59:45;30.58;;;15.00;;
52031;SDS011;38044;45.148;39.604;2024-01-11T06:02:11;23.33;;;14.07;;
52031;SDS011;38044;45.148;39.604;2024-01-11T06:04:38;22.67;;;13.48;;
52031;SDS011;38044;45.148;39.604;2024-01-11T06:07:05;22.75;;;13.40;;
52031;SDS011;38044;45.148;39.604;2024-01-11T06:09:31;20.92;;;12.45;;
52031;SDS011;38044;45.148;39.604;2024-01-11T06:11:56;19.65;;;11.43;;
52031;SDS011;38044;45.148;39.604;2024-01-11T06:14:22;17.75;;;11.15;;
52031;SDS011;38044;45.148;39.604;2024-01-11T06:16:48;18.50;;;11.20;;
52031;SDS011;38044;45.148;39.604;2024-01-11T06:19:14;15.55;;;10.30;;
52031;SDS011;38044;45.148;39.604;2024-01-11T06:21:40;16.92;;;11.15;;
52031;SDS011;38044;45.148;39.604;2024-01-11T06:24:06;18.42;;;11.50;;
52031;SDS011;38044;45.148;39.604;2024-01-11T06:26:32;16.15;;;9.90;;
52031;SDS011;38044;45.148;39.604;2024-01-11T06:28:58;16.00;;;9.85;;
52031;SDS011;38044;45.148;39.604;2024-01-11T06:31:23;13.55;;;9.50;;
52031;SDS011;38044;45.148;39.604;2024-01-11T06:33:49;16.33;;;10.00;;
52031;SDS011;38044;45.148;39.604;2024-01-11T06:36:15;16.55;;;10.43;;
52031;SDS011;38044;45.148;39.604;2024-01-11T06:38:41;16.30;;;10.00;;
52031;SDS011;38044;45.148;39.604;2024-01-11T06:41:07;16.75;;;9.73;;
52031;SDS011;38044;45.148;39.604;2024-01-11T06:43:33;16.38;;;9.15;;
52031;SDS011;38044;45.148;39.604;2024-01-11T06:46:03;16.42;;;8.75;;
52031;SDS011;38044;45.148;39.604;2024-01-11T06:48:30;12.00;;;7.80;;
52031;SDS011;38044;45.148;39.604;2024-01-11T06:50:56;13.77;;;7.80;;
52031;SDS011;38044;45.148;39.604;2024-01-11T06:53:22;13.25;;;7.75;;
52031;SDS011;38044;45.148;39.604;2024-01-11T06:55:48;14.98;;;7.72;;
52031;SDS011;38044;45.148;39.604;2024-01-11T06:58:15;16.40;;;8.43;;
52031;SDS011;38044;45.148;39.604;2024-01-11T07:00:41;14.13;;;8.73;;
52031;SDS011;38044;45.148;39.604;2024-01-11T07:03:10;13.93;;;7.78;;
52031;SDS011;38044;45.148;39.604;2024-01-11T07:05:36;14.77;;;8.48;;
52031;SDS011;38044;45.148;39.604;2024-01-11T07:08:02;16.13;;;9.07;;
52031;SDS011;38044;45.148;39.604;2024-01-11T07:10:29;15.93;;;9.48;;
52031;SDS011;38044;45.148;39.604;2024-01-11T07:12:55;16.02;;;8.88;;
52031;SDS011;38044;45.148;39.604;2024-01-11T07:15:21;15.27;;;8.68;;
52031;SDS011;38044;45.148;39.604;2024-01-11T07:17:47;15.38;;;8.50;;
52031;SDS011;38044;45.148;39.604;2024-01-11T07:20:13;13.57;;;7.07;;
52031;SDS011;38044;45.148;39.604;2024-01-11T07:22:41;15.60;;;8.35;;
52031;SDS011;38044;45.148;39.604;2024-01-11T07:25:07;15.60;;;8.20;;
52031;SDS011;38044;45.148;39.604;2024-01-11T07:27:33;16.70;;;8.48;;
52031;SDS011;38044;45.148;39.604;2024-01-11T07:30:00;18.73;;;9.77;;
52031;SDS011;38044;45.148;39.604;2024-01-11T07:32:27;21.05;;;10.77;;
52031;SDS011;38044;45.148;39.604;2024-01-11T07:34:53;20.08;;;10.93;;
52031;SDS011;38044;45.148;39.604;2024-01-11T07:37:19;19.25;;;10.77;;
52031;SDS011;38044;45.148;39.604;2024-01-11T07:39:45;22.30;;;11.98;;
52031;SDS011;38044;45.148;39.604;2024-01-11T07:42:11;17.88;;;11.05;;
52031;SDS011;38044;45.148;39.604;2024-01-11T07:44:37;19.20;;;11.55;;
52031;SDS011;38044;45.148;39.604;2024-01-11T07:47:03;19.80;;;11.23;;
52031;SDS011;38044;45.148;39.604;2024-01-11T07:49:29;17.38;;;9.85;;
52031;SDS011;38044;45.148;39.604;2024-01-11T07:51:55;15.63;;;8.93;;
52031;SDS011;38044;45.148;39.604;2024-01-11T07:54:21;17.98;;;10.57;;
52031;SDS011;38044;45.148;39.604;2024-01-11T07:56:47;18.50;;;10.13;;
52031;SDS011;38044;45.148;39.604;2024-01-11T07:59:13;17.17;;;9.65;;
52031;SDS011;38044;45.148;39.604;2024-01-11T08:01:40;16.80;;;9.80;;
52031;SDS011;38044;45.148;39.604;2024-01-11T08:04:06;14.55;;;8.30;;
52031;SDS011;38044;45.148;39.604;2024-01-11T08:06:32;13.85;;;7.68;;
52031;SDS011;38044;45.148;39.604;2024-01-11T08:08:58;18.00;;;9.20;;
52031;SDS011;38044;45.148;39.604;2024-01-11T08:11:23;16.63;;;8.88;;
52031;SDS011;38044;45.148;39.604;2024-01-11T08:13:49;16.80;;;9.02;;
52031;SDS011;38044;45.148;39.604;2024-01-11T08:16:16;16.85;;;9.27;;
52031;SDS011;38044;45.148;39.604;2024-01-11T08:18:43;20.95;;;11.02;;
52031;SDS011;38044;45.148;39.604;2024-01-11T08:21:09;12.38;;;7.63;;
52031;SDS011;38044;45.148;39.604;2024-01-11T08:23:37;15.35;;;8.85;;
52031;SDS011;38044;45.148;39.604;2024-01-11T08:26:13;11.90;;;7.85;;
52031;SDS011;38044;45.148;39.604;2024-01-11T08:28:39;15.93;;;9.50;;
52031;SDS011;38044;45.148;39.604;2024-01-11T08:31:05;13.82;;;8.75;;
52031;SDS011;38044;45.148;39.604;2024-01-11T08:33:32;15.63;;;9.27;;
52031;SDS011;38044;45.148;39.604;2024-01-11T08:35:58;15.57;;;8.82;;
52031;SDS011;38044;45.148;39.604;2024-01-11T08:38:24;13.07;;;8.63;;
52031;SDS011;38044;45.148;39.604;2024-01-11T08:40:50;14.90;;;8.50;;
52031;SDS011;38044;45.148;39.604;2024-01-11T08:43:16;12.35;;;7.95;;
52031;SDS011;38044;45.148;39.604;2024-01-11T08:45:42;11.90;;;7.70;;
52031;SDS011;38044;45.148;39.604;2024-01-11T08:48:12;12.18;;;7.10;;
52031;SDS011;38044;45.148;39.604;2024-01-11T08:50:39;11.05;;;7.15;;
52031;SDS011;38044;45.148;39.604;2024-01-11T08:53:04;14.77;;;7.60;;
52031;SDS011;38044;45.148;39.604;2024-01-11T08:55:30;13.30;;;6.90;;
52031;SDS011;38044;45.148;39.604;2024-01-11T08:57:56;9.43;;;6.00;;
52031;SDS011;38044;45.148;39.604;2024-01-11T09:00:22;9.52;;;5.63;;
52031;SDS011;38044;45.148;39.604;2024-01-11T09:02:48;9.35;;;6.10;;
52031;SDS011;38044;45.148;39.604;2024-01-11T09:05:14;8.48;;;5.30;;
52031;SDS011;38044;45.148;39.604;2024-01-11T09:07:40;8.43;;;5.30;;
52031;SDS011;38044;45.148;39.604;2024-01-11T09:10:07;9.75;;;5.88;;
52031;SDS011;38044;45.148;39.604;2024-01-11T09:12:37;8.85;;;5.40;;
52031;SDS011;38044;45.148;39.604;2024-01-11T09:15:03;9.25;;;5.18;;
52031;SDS011;38044;45.148;39.604;2024-01-11T09:17:29;8.38;;;5.35;;
52031;SDS011;38044;45.148;39.604;2024-01-11T09:19:55;8.48;;;5.20;;
52031;SDS011;38044;45.148;39.604;2024-01-11T09:22:21;8.93;;;4.85;;
52031;SDS011;38044;45.148;39.604;2024-01-11T09:24:47;7.82;;;4.97;;
52031;SDS011;38044;45.148;39.604;2024-01-11T09:27:13;13.70;;;5.97;;
52031;SDS011;38044;45.148;39.604;2024-01-11T09:29:43;11.48;;;6.25;;
52031;SDS011;38044;45.148;39.604;2024-01-11T09:32:09;7.13;;;4.50;;
52031;SDS011;38044;45.148;39.604;2024-01-11T09:34:35;7.32;;;3.70;;
52031;SDS011;38044;45.148;39.604;2024-01-11T09:37:01;5.45;;;3.85;;
52031;SDS011;38044;45.148;39.604;2024-01-11T09:39:27;6.88;;;4.60;;
52031;SDS011;38044;45.148;39.604;2024-01-11T09:42:04;6.45;;;4.03;;
52031;SDS011;38044;45.148;39.604;2024-01-11T09:44:35;7.60;;;5.18;;
52031;SDS011;38044;45.148;39.604;2024-01-11T09:47:03;4.32;;;3.03;;
52031;SDS011;38044;45.148;39.604;2024-01-11T09:49:31;4.18;;;2.88;;
52031;SDS011;38044;45.148;39.604;2024-01-11T09:51:59;4.18;;;2.50;;
52031;SDS011;38044;45.148;39.604;2024-01-11T09:54:26;3.20;;;2.42;;
52031;SDS011;38044;45.148;39.604;2024-01-11T09:56:53;3.70;;;2.72;;
52031;SDS011;38044;45.148;39.604;2024-01-11T09:59:20;4.10;;;2.30;;
52031;SDS011;38044;45.148;39.604;2024-01-11T10:01:49;4.78;;;2.55;;
52031;SDS011;38044;45.148;39.604;2024-01-11T10:04:16;4.07;;;3.67;;
52031;SDS011;38044;45.148;39.604;2024-01-11T10:06:42;5.43;;;4.03;;
52031;SDS011;38044;45.148;39.604;2024-01-11T10:09:09;4.68;;;3.17;;
52031;SDS011;38044;45.148;39.604;2024-01-11T10:11:35;4.18;;;3.33;;
52031;SDS011;38044;45.148;39.604;2024-01-11T10:14:06;6.07;;;4.13;;
52031;SDS011;38044;45.148;39.604;2024-01-11T10:16:32;4.95;;;4.13;;
52031;SDS011;38044;45.148;39.604;2024-01-11T10:18:58;2.92;;;2.40;;
52031;SDS011;38044;45.148;39.604;2024-01-11T10:21:24;3.97;;;3.00;;
52031;SDS011;38044;45.148;39.604;2024-01-11T10:23:55;3.90;;;3.05;;
52031;SDS011;38044;45.148;39.604;2024-01-11T10:26:24;3.38;;;2.67;;
52031;SDS011;38044;45.148;39.604;2024-01-11T10:28:50;4.00;;;3.20;;
52031;SDS011;38044;45.148;39.604;2024-01-11T10:31:16;3.55;;;2.63;;
52031;SDS011;38044;45.148;39.604;2024-01-11T10:33:43;3.20;;;2.65;;
52031;SDS011;38044;45.148;39.604;2024-01-11T10:36:11;4.75;;;3.30;;
52031;SDS011;38044;45.148;39.604;2024-01-11T10:38:37;4.38;;;3.08;;
52031;SDS011;38044;45.148;39.604;2024-01-11T10:41:05;4.25;;;3.20;;
52031;SDS011;38044;45.148;39.604;2024-01-11T10:43:35;4.50;;;3.60;;
52031;SDS011;38044;45.148;39.604;2024-01-11T10:46:04;4.63;;;3.30;;
52031;SDS011;38044;45.148;39.604;2024-01-11T10:48:31;4.57;;;3.28;;
52031;SDS011;38044;45.148;39.604;2024-01-11T10:51:02;3.70;;;3.00;;
52031;SDS011;38044;45.148;39.604;2024-01-11T10:53:41;3.25;;;2.55;;
52031;SDS011;38044;45.148;39.604;2024-01-11T10:56:08;3.90;;;2.13;;
52031;SDS011;38044;45.148;39.604;2024-01-11T10:58:37;3.35;;;2.50;;
52031;SDS011;38044;45.148;39.604;2024-01-11T11:01:06;2.28;;;1.88;;
52031;SDS011;38044;45.148;39.604;2024-01-11T11:03:34;3.30;;;2.63;;
52031;SDS011;38044;45.148;39.604;2024-01-11T11:06:01;2.35;;;1.50;;
52031;SDS011;38044;45.148;39.604;2024-01-11T11:08:29;4.40;;;1.90;;
52031;SDS011;38044;45.148;39.604;2024-01-11T11:10:56;3.28;;;1.58;;
52031;SDS011;38044;45.148;39.604;2024-01-11T11:13:24;2.30;;;1.77;;
52031;SDS011;38044;45.148;39.604;2024-01-11T11:15:51;3.00;;;2.30;;
52031;SDS011;38044;45.148;39.604;2024-01-11T11:18:18;2.45;;;1.88;;
52031;SDS011;38044;45.148;39.604;2024-01-11T11:20:45;2.40;;;1.73;;
52031;SDS011;38044;45.148;39.604;2024-01-11T11:23:13;2.38;;;2.08;;
52031;SDS011;38044;45.148;39.604;2024-01-11T11:25:42;2.53;;;1.42;;
52031;SDS011;38044;45.148;39.604;2024-01-11T11:28:12;2.03;;;1.58;;
52031;SDS011;38044;45.148;39.604;2024-01-11T11:30:39;3.25;;;2.17;;
52031;SDS011;38044;45.148;39.604;2024-01-11T11:35:36;2.70;;;2.05;;
52031;SDS011;38044;45.148;39.604;2024-01-11T11:38:03;2.88;;;1.88;;
52031;SDS011;38044;45.148;39.604;2024-01-11T11:40:36;1.75;;;1.40;;
52031;SDS011;38044;45.148;39.604;2024-01-11T11:43:08;2.70;;;1.30;;
52031;SDS011;38044;45.148;39.604;2024-01-11T11:45:34;1.75;;;1.20;;
52031;SDS011;38044;45.148;39.604;2024-01-11T11:48:01;3.08;;;1.42;;
52031;SDS011;38044;45.148;39.604;2024-01-11T11:50:41;1.90;;;1.08;;
52031;SDS011;38044;45.148;39.604;2024-01-11T11:53:07;1.73;;;0.90;;
52031;SDS011;38044;45.148;39.604;2024-01-11T11:55:36;2.08;;;1.02;;
52031;SDS011;38044;45.148;39.604;2024-01-11T11:58:02;1.92;;;1.17;;
52031;SDS011;38044;45.148;39.604;2024-01-11T12:00:28;3.13;;;1.15;;
52031;SDS011;38044;45.148;39.604;2024-01-11T12:02:58;2.22;;;1.70;;
52031;SDS011;38044;45.148;39.604;2024-01-11T12:05:29;1.75;;;1.10;;
52031;SDS011;38044;45.148;39.604;2024-01-11T12:07:54;2.60;;;2.00;;
52031;SDS011;38044;45.148;39.604;2024-01-11T12:10:20;2.33;;;1.38;;
52031;SDS011;38044;45.148;39.604;2024-01-11T12:12:46;1.40;;;1.30;;
52031;SDS011;38044;45.148;39.604;2024-01-11T12:15:13;2.92;;;2.17;;
52031;SDS011;38044;45.148;39.604;2024-01-11T12:17:39;4.35;;;2.90;;
52031;SDS011;38044;45.148;39.604;2024-01-11T12:20:07;3.53;;;3.15;;
52031;SDS011;38044;45.148;39.604;2024-01-11T12:22:33;3.75;;;3.30;;
52031;SDS011;38044;45.148;39.604;2024-01-11T12:24:59;5.35;;;3.90;;
52031;SDS011;38044;45.148;39.604;2024-01-11T12:27:27;6.55;;;5.10;;
52031;SDS011;38044;45.148;39.604;2024-01-11T12:29:53;5.32;;;3.55;;
52031;SDS011;38044;45.148;39.604;2024-01-11T12:32:19;5.47;;;4.72;;
52031;SDS011;38044;45.148;39.604;2024-01-11T12:34:46;6.72;;;4.95;;
52031;SDS011;38044;45.148;39.604;2024-01-11T12:37:12;6.45;;;4.72;;
52031;SDS011;38044;45.148;39.604;2024-01-11T12:39:38;4.97;;;2.83;;
52031;SDS011;38044;45.148;39.604;2024-01-11T12:42:04;4.68;;;3.38;;
52031;SDS011;38044;45.148;39.604;2024-01-11T12:44:30;6.78;;;4.53;;
52031;SDS011;38044;45.148;39.604;2024-01-11T12:46:58;6.55;;;4.00;;
52031;SDS011;38044;45.148;39.604;2024-01-11T12:49:23;4.70;;;3.92;;
52031;SDS011;38044;45.148;39.604;2024-01-11T12:51:49;5.68;;;4.50;;
52031;SDS011;38044;45.148;39.604;2024-01-11T12:54:15;6.13;;;4.32;;
52031;SDS011;38044;45.148;39.604;2024-01-11T12:56:44;6.95;;;4.68;;
52031;SDS011;38044;45.148;39.604;2024-01-11T12:59:11;6.70;;;4.75;;
52031;SDS011;38044;45.148;39.604;2024-01-11T13:01:40;6.68;;;5.25;;
52031;SDS011;38044;45.148;39.604;2024-01-11T13:04:08;5.03;;;3.85;;
52031;SDS011;38044;45.148;39.604;2024-01-11T13:06:34;6.85;;;4.80;;
52031;SDS011;38044;45.148;39.604;2024-01-11T13:09:01;7.85;;;5.13;;
52031;SDS011;38044;45.148;39.604;2024-01-11T13:11:28;5.70;;;4.32;;
52031;SDS011;38044;45.148;39.604;2024-01-11T13:13:54;3.58;;;2.80;;
52031;SDS011;38044;45.148;39.604;2024-01-11T13:16:19;3.20;;;2.42;;
52031;SDS011;38044;45.148;39.604;2024-01-11T13:18:46;2.10;;;1.80;;
52031;SDS011;38044;45.148;39.604;2024-01-11T13:21:12;1.95;;;1.63;;
52031;SDS011;38044;45.148;39.604;2024-01-11T13:23:38;1.88;;;1.17;;
52031;SDS011;38044;45.148;39.604;2024-01-11T13:26:05;1.15;;;1.00;;
52031;SDS011;38044;45.148;39.604;2024-01-11T13:28:32;1.77;;;1.10;;
52031;SDS011;38044;45.148;39.604;2024-01-11T13:30:58;2.25;;;1.23;;
52031;SDS011;38044;45.148;39.604;2024-01-11T13:33:25;1.60;;;1.38;;
52031;SDS011;38044;45.148;39.604;2024-01-11T13:35:51;1.67;;;1.17;;
52031;SDS011;38044;45.148;39.604;2024-01-11T13:38:17;2.70;;;1.48;;
52031;SDS011;38044;45.148;39.604;2024-01-11T13:40:43;4.68;;;2.72;;
52031;SDS011;38044;45.148;39.604;2024-01-11T13:43:09;3.75;;;2.83;;
52031;SDS011;38044;45.148;39.604;2024-01-11T13:45:35;2.10;;;1.90;;
52031;SDS011;38044;45.148;39.604;2024-01-11T13:48:05;4.47;;;4.07;;
52031;SDS011;38044;45.148;39.604;2024-01-11T13:50:31;5.30;;;3.80;;
52031;SDS011;38044;45.148;39.604;2024-01-11T13:52:58;4.97;;;4.47;;
52031;SDS011;38044;45.148;39.604;2024-01-11T13:55:24;4.05;;;2.80;;
52031;SDS011;38044;45.148;39.604;2024-01-11T13:57:50;2.55;;;1.02;;
52031;SDS011;38044;45.148;39.604;2024-01-11T14:00:17;1.27;;;0.98;;
52031;SDS011;38044;45.148;39.604;2024-01-11T14:02:44;1.58;;;0.90;;
52031;SDS011;38044;45.148;39.604;2024-01-11T14:05:11;1.38;;;0.85;;
52031;SDS011;38044;45.148;39.604;2024-01-11T14:07:42;1.45;;;0.60;;
52031;SDS011;38044;45.148;39.604;2024-01-11T14:10:10;1.13;;;0.68;;
52031;SDS011;38044;45.148;39.604;2024-01-11T14:12:37;0.70;;;0.65;;
52031;SDS011;38044;45.148;39.604;2024-01-11T14:15:03;0.93;;;0.73;;
52031;SDS011;38044;45.148;39.604;2024-01-11T14:17:34;1.85;;;0.70;;
52031;SDS011;38044;45.148;39.604;2024-01-11T14:20:00;1.67;;;0.70;;